createdAt,value
2017-09-17T00:00:32.924Z,0
2017-09-17T00:01:13.375Z,0
2017-09-17T00:01:53.820Z,0
2017-09-17T00:02:34.274Z,0
2017-09-17T00:03:14.719Z,0
2017-09-17T00:03:55.165Z,0
2017-09-17T00:04:35.613Z,0
2017-09-17T00:05:16.065Z,0
2017-09-17T00:05:56.515Z,0
2017-09-17T00:06:36.958Z,0
2017-09-17T00:07:17.403Z,0
2017-09-17T00:07:57.853Z,0
2017-09-17T00:08:38.315Z,0
2017-09-17T00:09:18.763Z,0
2017-09-17T00:09:59.211Z,0
2017-09-17T00:10:39.664Z,0
2017-09-17T00:11:20.112Z,0
2017-09-17T00:12:00.558Z,0
2017-09-17T00:12:41.004Z,0
2017-09-17T00:13:21.448Z,0
2017-09-17T00:14:01.905Z,0
2017-09-17T00:14:42.361Z,0
2017-09-17T00:15:22.814Z,0
2017-09-17T00:16:03.271Z,0
2017-09-17T00:16:43.728Z,0
2017-09-17T00:17:24.173Z,0
2017-09-17T00:18:04.625Z,0
2017-09-17T00:18:45.076Z,0
2017-09-17T00:19:25.523Z,0
2017-09-17T00:20:05.971Z,0
2017-09-17T00:20:46.419Z,0
2017-09-17T00:21:26.868Z,0
2017-09-17T00:22:07.322Z,0
2017-09-17T00:22:47.765Z,0
2017-09-17T00:23:28.212Z,0
2017-09-17T00:24:08.659Z,0
2017-09-17T00:24:49.108Z,0
2017-09-17T00:25:29.553Z,0
2017-09-17T00:26:09.990Z,0
2017-09-17T00:26:50.448Z,0
2017-09-17T00:27:30.888Z,0
2017-09-17T00:28:11.346Z,0
2017-09-17T00:28:51.790Z,0
2017-09-17T00:29:32.250Z,0
2017-09-17T00:30:12.691Z,0
2017-09-17T00:30:53.145Z,0
2017-09-17T00:31:33.607Z,0
2017-09-17T00:32:14.025Z,0
2017-09-17T00:32:54.472Z,0
2017-09-17T00:33:34.922Z,0
2017-09-17T00:34:15.375Z,0
2017-09-17T00:34:55.820Z,0
2017-09-17T00:35:36.263Z,0
2017-09-17T00:36:16.719Z,0
2017-09-17T00:36:57.170Z,0
2017-09-17T00:37:37.632Z,0
2017-09-17T00:38:18.074Z,0
2017-09-17T00:38:58.520Z,0
2017-09-17T00:39:38.982Z,0
2017-09-17T00:40:19.394Z,0
2017-09-17T00:40:59.846Z,0
2017-09-17T00:41:40.291Z,0
2017-09-17T00:42:20.729Z,0
2017-09-17T00:43:01.177Z,0
2017-09-17T00:43:41.641Z,0
2017-09-17T00:44:22.100Z,0
2017-09-17T00:45:02.538Z,0
2017-09-17T00:45:42.991Z,0
2017-09-17T00:46:23.437Z,0
2017-09-17T00:47:03.881Z,0
2017-09-17T00:47:44.337Z,0
2017-09-17T00:48:24.781Z,0
2017-09-17T00:49:05.221Z,0
2017-09-17T00:49:45.672Z,0
2017-09-17T00:50:26.125Z,0
2017-09-17T00:51:06.574Z,0
2017-09-17T00:51:47.011Z,0
2017-09-17T00:52:27.460Z,0
2017-09-17T00:53:07.908Z,0
2017-09-17T00:53:48.359Z,0
2017-09-17T00:54:28.814Z,0
2017-09-17T00:55:09.270Z,0
2017-09-17T00:55:49.718Z,0
2017-09-17T00:56:30.163Z,0
2017-09-17T00:57:10.607Z,0
2017-09-17T00:57:51.049Z,0
2017-09-17T00:58:31.472Z,0
2017-09-17T00:59:11.924Z,0
2017-09-17T00:59:52.363Z,0
2017-09-17T01:00:32.805Z,0
2017-09-17T01:01:13.250Z,0
2017-09-17T01:01:53.697Z,0
2017-09-17T01:02:34.139Z,0
2017-09-17T01:03:14.582Z,0
2017-09-17T01:03:55.028Z,0
2017-09-17T01:04:35.480Z,0
2017-09-17T01:05:15.917Z,0
2017-09-17T01:05:56.360Z,0
2017-09-17T01:06:36.807Z,0
2017-09-17T01:07:17.273Z,0
2017-09-17T01:07:57.710Z,0
2017-09-17T01:08:38.144Z,0
2017-09-17T01:09:18.599Z,0
2017-09-17T01:09:59.042Z,0
2017-09-17T01:10:39.485Z,0
2017-09-17T01:11:19.931Z,0
2017-09-17T01:12:00.375Z,0
2017-09-17T01:12:40.828Z,0
2017-09-17T01:13:21.279Z,0
2017-09-17T01:14:01.725Z,0
2017-09-17T01:14:42.159Z,0
2017-09-17T01:15:22.627Z,0
2017-09-17T01:17:35.381Z,0
2017-09-17T01:18:15.826Z,0
2017-09-17T01:18:56.267Z,0
2017-09-17T01:19:36.718Z,0
2017-09-17T01:20:17.170Z,0
2017-09-17T01:20:57.619Z,0
2017-09-17T01:21:38.062Z,0
2017-09-17T01:22:18.507Z,0
2017-09-17T01:22:58.946Z,0
2017-09-17T01:23:39.396Z,0
2017-09-17T01:24:19.837Z,0
2017-09-17T01:25:00.281Z,0
2017-09-17T01:25:40.724Z,0
2017-09-17T01:26:21.167Z,0
2017-09-17T01:27:01.610Z,0
2017-09-17T01:27:42.056Z,0
2017-09-17T01:28:22.493Z,0
2017-09-17T01:29:02.941Z,0
2017-09-17T01:29:43.388Z,0
2017-09-17T01:30:23.838Z,0
2017-09-17T01:31:04.281Z,0
2017-09-17T01:31:44.728Z,0
2017-09-17T01:32:25.177Z,0
2017-09-17T01:33:05.631Z,0
2017-09-17T01:33:46.078Z,0
2017-09-17T01:34:26.520Z,0
2017-09-17T01:35:06.969Z,0
2017-09-17T01:35:47.419Z,0
2017-09-17T01:36:27.874Z,0
2017-09-17T01:37:08.333Z,0
2017-09-17T01:37:48.784Z,0
2017-09-17T01:38:29.232Z,0
2017-09-17T01:39:09.681Z,0
2017-09-17T01:39:50.130Z,0
2017-09-17T01:40:30.572Z,0
2017-09-17T01:41:11.020Z,0
2017-09-17T01:41:51.465Z,0
2017-09-17T01:42:31.917Z,0
2017-09-17T01:43:12.359Z,0
2017-09-17T01:43:52.809Z,0
2017-09-17T01:44:33.279Z,0
2017-09-17T01:45:13.726Z,0
2017-09-17T01:45:54.174Z,0
2017-09-17T01:48:22.212Z,0
2017-09-17T01:49:02.654Z,0
2017-09-17T01:49:43.105Z,0
2017-09-17T01:50:23.555Z,0
2017-09-17T01:51:04.006Z,0
2017-09-17T01:51:44.448Z,0
2017-09-17T01:52:24.895Z,0
2017-09-17T01:53:05.341Z,0
2017-09-17T01:53:45.791Z,0
2017-09-17T01:54:26.245Z,0
2017-09-17T01:55:06.697Z,0
2017-09-17T01:55:47.148Z,0
2017-09-17T01:56:27.600Z,0
2017-09-17T01:57:08.038Z,0
2017-09-17T01:57:48.488Z,0
2017-09-17T01:58:28.940Z,0
2017-09-17T01:59:09.389Z,0
2017-09-17T01:59:49.859Z,0
2017-09-17T02:00:30.301Z,0
2017-09-17T02:01:10.753Z,0
2017-09-17T02:01:51.194Z,0
2017-09-17T02:02:31.642Z,0
2017-09-17T02:03:12.092Z,0
2017-09-17T02:03:52.546Z,0
2017-09-17T02:04:32.994Z,0
2017-09-17T02:05:13.441Z,0
2017-09-17T02:05:53.884Z,0
2017-09-17T02:06:34.332Z,0
2017-09-17T02:07:14.780Z,0
2017-09-17T02:07:55.227Z,0
2017-09-17T02:08:35.670Z,0
2017-09-17T02:09:16.119Z,0
2017-09-17T02:09:56.574Z,0
2017-09-17T02:10:37.029Z,0
2017-09-17T02:11:17.479Z,0
2017-09-17T02:11:57.925Z,0
2017-09-17T02:12:38.385Z,0
2017-09-17T02:13:18.827Z,0
2017-09-17T02:13:59.279Z,0
2017-09-17T02:14:39.726Z,0
2017-09-17T02:15:20.174Z,0
2017-09-17T02:16:00.625Z,0
2017-09-17T02:16:41.084Z,0
2017-09-17T02:17:21.532Z,0
2017-09-17T02:18:01.979Z,0
2017-09-17T02:18:42.434Z,0
2017-09-17T02:19:22.877Z,0
2017-09-17T02:20:03.330Z,0
2017-09-17T02:20:43.774Z,0
2017-09-17T02:21:24.218Z,0
2017-09-17T02:22:04.669Z,0
2017-09-17T02:22:45.115Z,0
2017-09-17T02:23:25.567Z,0
2017-09-17T02:24:06.015Z,0
2017-09-17T02:24:46.456Z,0
2017-09-17T02:25:26.894Z,0
2017-09-17T02:26:07.348Z,0
2017-09-17T02:26:47.790Z,0
2017-09-17T02:27:28.238Z,0
2017-09-17T02:28:08.691Z,0
2017-09-17T02:28:49.153Z,0
2017-09-17T02:29:29.576Z,0
2017-09-17T02:30:10.035Z,0
2017-09-17T02:30:50.479Z,0
2017-09-17T02:31:30.930Z,0
2017-09-17T02:32:11.376Z,0
2017-09-17T02:32:51.839Z,0
2017-09-17T02:33:32.281Z,0
2017-09-17T02:34:12.733Z,0
2017-09-17T02:34:53.180Z,0
2017-09-17T02:35:33.628Z,0
2017-09-17T02:36:14.068Z,0
2017-09-17T02:36:54.541Z,0
2017-09-17T02:37:35.011Z,0
2017-09-17T02:38:15.443Z,0
2017-09-17T02:38:55.888Z,0
2017-09-17T02:39:36.336Z,0
2017-09-17T02:40:16.784Z,0
2017-09-17T02:40:57.237Z,0
2017-09-17T02:41:37.677Z,0
2017-09-17T02:42:18.123Z,0
2017-09-17T02:42:58.577Z,0
2017-09-17T02:43:39.022Z,0
2017-09-17T02:44:19.473Z,0
2017-09-17T02:44:59.921Z,0
2017-09-17T02:45:40.367Z,0
2017-09-17T02:46:20.812Z,0
2017-09-17T02:47:01.259Z,0
2017-09-17T02:47:41.702Z,0
2017-09-17T02:48:22.157Z,0
2017-09-17T02:49:02.601Z,0
2017-09-17T02:49:43.048Z,0
2017-09-17T02:50:23.490Z,0
2017-09-17T02:51:03.943Z,0
2017-09-17T02:51:44.394Z,0
2017-09-17T02:52:24.842Z,0
2017-09-17T02:53:05.291Z,0
2017-09-17T02:53:45.742Z,0
2017-09-17T02:54:26.230Z,0
2017-09-17T02:55:06.635Z,0
2017-09-17T02:55:47.078Z,0
2017-09-17T02:56:27.532Z,0
2017-09-17T02:57:07.975Z,0
2017-09-17T02:57:48.443Z,0
2017-09-17T02:58:28.869Z,0
2017-09-17T02:59:09.319Z,0
2017-09-17T02:59:49.757Z,0
2017-09-17T03:00:30.216Z,0
2017-09-17T03:01:10.669Z,0
2017-09-17T03:01:51.118Z,0
2017-09-17T03:02:31.566Z,0
2017-09-17T03:03:12.014Z,0
2017-09-17T03:03:52.464Z,0
2017-09-17T03:04:32.911Z,0
2017-09-17T03:05:13.369Z,0
2017-09-17T03:05:53.814Z,0
2017-09-17T03:06:34.245Z,0
2017-09-17T03:07:14.692Z,0
2017-09-17T03:07:55.136Z,0
2017-09-17T03:08:35.585Z,0
2017-09-17T03:09:16.036Z,0
2017-09-17T03:09:56.491Z,0
2017-09-17T03:10:36.939Z,0
2017-09-17T03:11:17.390Z,0
2017-09-17T03:11:57.838Z,0
2017-09-17T03:12:38.284Z,0
2017-09-17T03:13:18.731Z,0
2017-09-17T03:13:59.184Z,0
2017-09-17T03:14:39.629Z,0
2017-09-17T03:15:20.079Z,0
2017-09-17T03:16:00.527Z,0
2017-09-17T03:16:40.975Z,0
2017-09-17T03:17:21.418Z,0
2017-09-17T03:18:01.872Z,0
2017-09-17T03:18:42.319Z,0
2017-09-17T03:19:22.770Z,0
2017-09-17T03:20:03.217Z,0
2017-09-17T03:20:43.667Z,0
2017-09-17T03:21:24.114Z,0
2017-09-17T03:22:04.564Z,0
2017-09-17T03:22:45.023Z,0
2017-09-17T03:23:25.449Z,0
2017-09-17T03:24:05.895Z,0
2017-09-17T03:24:46.360Z,0
2017-09-17T03:25:26.808Z,0
2017-09-17T03:26:07.254Z,0
2017-09-17T03:26:47.709Z,0
2017-09-17T03:27:28.151Z,0
2017-09-17T03:28:08.600Z,0
2017-09-17T03:28:49.046Z,0
2017-09-17T03:29:29.483Z,0
2017-09-17T03:30:09.936Z,0
2017-09-17T03:30:50.378Z,0
2017-09-17T03:31:30.830Z,0
2017-09-17T03:32:11.268Z,0
2017-09-17T03:32:51.718Z,0
2017-09-17T03:33:32.164Z,0
2017-09-17T03:34:12.615Z,0
2017-09-17T03:34:53.059Z,0
2017-09-17T03:35:33.499Z,0
2017-09-17T03:36:13.949Z,0
2017-09-17T03:36:54.397Z,0
2017-09-17T03:37:34.854Z,0
2017-09-17T03:38:15.301Z,0
2017-09-17T03:38:55.748Z,0
2017-09-17T03:39:36.194Z,0
2017-09-17T03:40:16.648Z,0
2017-09-17T03:40:57.097Z,0
2017-09-17T03:41:37.544Z,0
2017-09-17T03:42:17.989Z,0
2017-09-17T03:42:58.431Z,0
2017-09-17T03:43:38.878Z,0
2017-09-17T03:44:19.328Z,0
2017-09-17T03:44:59.776Z,0
2017-09-17T03:45:40.221Z,0
2017-09-17T03:46:20.673Z,0
2017-09-17T03:47:01.121Z,0
2017-09-17T03:47:41.570Z,0
2017-09-17T03:48:22.014Z,0
2017-09-17T03:49:02.463Z,0
2017-09-17T03:49:42.910Z,0
2017-09-17T03:50:23.369Z,0
2017-09-17T03:51:03.803Z,0
2017-09-17T03:51:44.246Z,0
2017-09-17T03:52:24.697Z,0
2017-09-17T03:53:05.143Z,0
2017-09-17T03:53:45.576Z,0
2017-09-17T03:54:26.026Z,0
2017-09-17T03:55:06.480Z,0
2017-09-17T03:55:46.929Z,0
2017-09-17T03:56:27.375Z,0
2017-09-17T03:57:07.824Z,0
2017-09-17T03:57:48.278Z,0
2017-09-17T03:58:28.717Z,0
2017-09-17T03:59:09.170Z,0
2017-09-17T03:59:49.603Z,0
2017-09-17T04:00:30.055Z,0
2017-09-17T04:01:10.495Z,0
2017-09-17T04:01:50.979Z,0
2017-09-17T04:02:31.432Z,0
2017-09-17T04:03:11.849Z,0
2017-09-17T04:03:52.302Z,0
2017-09-17T04:04:32.753Z,0
2017-09-17T04:05:13.196Z,0
2017-09-17T04:05:53.648Z,0
2017-09-17T04:06:34.082Z,0
2017-09-17T04:07:14.525Z,0
2017-09-17T04:07:54.972Z,0
2017-09-17T04:08:35.428Z,0
2017-09-17T04:09:15.874Z,0
2017-09-17T04:09:56.321Z,0
2017-09-17T04:10:36.775Z,0
2017-09-17T04:11:17.232Z,0
2017-09-17T04:11:57.687Z,0
2017-09-17T04:12:38.136Z,0
2017-09-17T04:13:18.585Z,0
2017-09-17T04:13:59.032Z,0
2017-09-17T04:14:39.480Z,0
2017-09-17T04:15:19.940Z,0
2017-09-17T04:16:00.389Z,0
2017-09-17T04:16:40.838Z,0
2017-09-17T04:17:21.281Z,0
2017-09-17T04:18:01.731Z,0
2017-09-17T04:18:42.180Z,0
2017-09-17T04:19:22.630Z,0
2017-09-17T04:20:03.080Z,0
2017-09-17T04:20:43.525Z,0
2017-09-17T04:21:23.972Z,0
2017-09-17T04:22:04.418Z,0
2017-09-17T04:22:44.870Z,0
2017-09-17T04:23:25.320Z,0
2017-09-17T04:24:05.768Z,0
2017-09-17T04:24:46.217Z,0
2017-09-17T04:25:26.671Z,0
2017-09-17T04:26:07.116Z,0
2017-09-17T04:26:47.565Z,0
2017-09-17T04:27:28.008Z,0
2017-09-17T04:28:08.457Z,0
2017-09-17T04:28:48.904Z,0
2017-09-17T04:29:29.350Z,0
2017-09-17T04:30:09.801Z,0
2017-09-17T04:30:50.253Z,0
2017-09-17T04:31:30.708Z,0
2017-09-17T04:32:11.155Z,0
2017-09-17T04:32:51.603Z,0
2017-09-17T04:33:32.052Z,0
2017-09-17T04:34:12.502Z,0
2017-09-17T04:34:52.968Z,0
2017-09-17T04:35:33.412Z,0
2017-09-17T04:36:13.860Z,0
2017-09-17T04:36:54.311Z,0
2017-09-17T04:37:34.758Z,0
2017-09-17T04:38:15.208Z,0
2017-09-17T04:38:55.677Z,0
2017-09-17T04:39:36.113Z,0
2017-09-17T04:40:16.569Z,0
2017-09-17T04:40:57.021Z,0
2017-09-17T04:41:37.470Z,0
2017-09-17T04:42:17.922Z,0
2017-09-17T04:42:58.371Z,0
2017-09-17T04:43:38.820Z,0
2017-09-17T04:44:19.267Z,0
2017-09-17T04:44:59.716Z,0
2017-09-17T04:45:40.170Z,0
2017-09-17T04:46:20.638Z,0
2017-09-17T04:47:01.091Z,0
2017-09-17T04:47:41.539Z,0
2017-09-17T04:48:21.985Z,0
2017-09-17T04:49:02.433Z,0
2017-09-17T04:49:42.880Z,0
2017-09-17T04:50:23.338Z,0
2017-09-17T04:51:03.785Z,0
2017-09-17T04:51:44.233Z,0
2017-09-17T04:52:24.682Z,0
2017-09-17T04:53:05.138Z,0
2017-09-17T04:53:45.604Z,0
2017-09-17T04:54:26.028Z,0
2017-09-17T04:55:06.477Z,0
2017-09-17T04:55:46.942Z,0
2017-09-17T04:56:27.380Z,0
2017-09-17T04:57:07.838Z,0
2017-09-17T04:57:48.280Z,0
2017-09-17T04:58:28.728Z,0
2017-09-17T04:59:09.187Z,0
2017-09-17T04:59:49.628Z,0
2017-09-17T05:00:30.079Z,0
2017-09-17T05:01:10.529Z,0
2017-09-17T05:01:50.980Z,0
2017-09-17T05:02:31.429Z,0
2017-09-17T05:03:11.878Z,0
2017-09-17T05:03:52.337Z,0
2017-09-17T05:04:32.784Z,0
2017-09-17T05:05:13.225Z,0
2017-09-17T05:05:53.676Z,0
2017-09-17T05:06:34.124Z,0
2017-09-17T05:07:14.567Z,0
2017-09-17T05:07:55.021Z,0
2017-09-17T05:08:35.473Z,0
2017-09-17T05:09:15.909Z,0
2017-09-17T05:09:56.364Z,0
2017-09-17T05:10:36.813Z,0
2017-09-17T05:11:17.263Z,0
2017-09-17T05:11:57.720Z,0
2017-09-17T05:12:38.170Z,0
2017-09-17T05:13:18.617Z,0
2017-09-17T05:13:59.055Z,0
2017-09-17T05:14:39.502Z,0
2017-09-17T05:15:19.945Z,0
2017-09-17T05:16:00.391Z,0
2017-09-17T05:16:40.837Z,0
2017-09-17T05:17:21.288Z,0
2017-09-17T05:18:01.742Z,0
2017-09-17T05:18:42.193Z,0
2017-09-17T05:19:22.651Z,0
2017-09-17T05:20:03.096Z,0
2017-09-17T05:20:43.551Z,0
2017-09-17T05:21:24.007Z,0
2017-09-17T05:22:04.457Z,0
2017-09-17T05:22:44.900Z,0
2017-09-17T05:23:25.343Z,0
2017-09-17T05:24:05.794Z,0
2017-09-17T05:24:46.241Z,0
2017-09-17T05:25:26.690Z,0
2017-09-17T05:26:07.165Z,0
2017-09-17T05:26:47.614Z,0
2017-09-17T05:27:28.061Z,0
2017-09-17T05:28:08.506Z,0
2017-09-17T05:28:48.960Z,0
2017-09-17T05:29:29.402Z,0
2017-09-17T05:30:09.852Z,0
2017-09-17T05:30:50.288Z,0
2017-09-17T05:31:30.732Z,0
2017-09-17T05:32:11.182Z,0
2017-09-17T05:32:51.634Z,0
2017-09-17T05:33:32.099Z,0
2017-09-17T05:34:12.554Z,0
2017-09-17T05:34:52.996Z,0
2017-09-17T05:35:33.440Z,0
2017-09-17T05:36:13.895Z,0
2017-09-17T05:36:54.332Z,0
2017-09-17T05:37:34.805Z,0
2017-09-17T05:38:15.233Z,0
2017-09-17T05:38:55.718Z,0
2017-09-17T05:39:36.164Z,0
2017-09-17T05:40:16.613Z,0
2017-09-17T05:40:57.061Z,0
2017-09-17T05:41:37.506Z,0
2017-09-17T05:42:17.978Z,0
2017-09-17T05:42:58.426Z,0
2017-09-17T05:43:38.892Z,0
2017-09-17T05:44:19.330Z,0
2017-09-17T05:44:59.774Z,4
2017-09-17T05:45:40.231Z,4
2017-09-17T05:46:20.663Z,4
2017-09-17T05:47:01.099Z,4
2017-09-17T05:47:41.546Z,4
2017-09-17T05:48:21.994Z,4
2017-09-17T05:49:02.428Z,4
2017-09-17T05:51:15.249Z,0
2017-09-17T05:51:55.693Z,0
2017-09-17T05:52:36.139Z,0
2017-09-17T05:53:16.583Z,0
2017-09-17T05:53:57.032Z,0
2017-09-17T05:54:37.470Z,0
2017-09-17T05:55:17.919Z,0
2017-09-17T05:55:58.354Z,0
2017-09-17T05:56:38.799Z,0
2017-09-17T05:57:19.247Z,0
2017-09-17T05:57:59.716Z,0
2017-09-17T05:58:40.159Z,0
2017-09-17T05:59:20.623Z,0
2017-09-17T06:00:01.049Z,0
2017-09-17T06:00:41.506Z,0
2017-09-17T06:01:21.968Z,0
2017-09-17T06:02:02.410Z,0
2017-09-17T06:02:42.853Z,0
2017-09-17T06:03:23.286Z,0
2017-09-17T06:04:03.732Z,0
2017-09-17T06:04:44.190Z,0
2017-09-17T06:05:24.640Z,0
2017-09-17T06:06:05.085Z,0
2017-09-17T06:06:45.530Z,4
2017-09-17T06:07:25.985Z,4
2017-09-17T06:08:06.445Z,4
2017-09-17T06:08:46.889Z,4
2017-09-17T06:09:27.336Z,4
2017-09-17T06:10:07.770Z,4
2017-09-17T06:10:48.215Z,4
2017-09-17T06:11:28.656Z,4
2017-09-17T06:12:09.090Z,4
2017-09-17T06:12:49.522Z,4
2017-09-17T06:13:29.956Z,4
2017-09-17T06:14:10.397Z,4
2017-09-17T06:14:50.828Z,4
2017-09-17T06:15:31.277Z,4
2017-09-17T06:16:11.729Z,4
2017-09-17T06:16:52.189Z,4
2017-09-17T06:17:32.622Z,4
2017-09-17T06:18:13.128Z,4
2017-09-17T06:18:53.578Z,4
2017-09-17T06:19:34.023Z,4
2017-09-17T06:20:14.457Z,4
2017-09-17T06:20:54.905Z,4
2017-09-17T06:21:35.358Z,0
2017-09-17T06:22:15.892Z,0
2017-09-17T06:22:56.345Z,0
2017-09-17T06:23:36.791Z,0
2017-09-17T06:24:17.232Z,0
2017-09-17T06:24:57.670Z,4
2017-09-17T06:25:38.119Z,4
2017-09-17T06:26:18.572Z,4
2017-09-17T06:26:59.047Z,4
2017-09-17T06:27:39.491Z,4
2017-09-17T06:28:19.952Z,4
2017-09-17T06:29:00.394Z,4
2017-09-17T06:29:40.845Z,4
2017-09-17T06:30:21.293Z,4
2017-09-17T06:31:01.726Z,4
2017-09-17T06:31:42.196Z,4
2017-09-17T06:32:22.657Z,4
2017-09-17T06:33:03.117Z,4
2017-09-17T06:33:43.562Z,0
2017-09-17T06:34:24.018Z,4
2017-09-17T06:35:04.469Z,4
2017-09-17T06:35:44.917Z,4
2017-09-17T06:36:25.467Z,4
2017-09-17T06:37:05.853Z,4
2017-09-17T06:37:46.295Z,4
2017-09-17T06:38:26.958Z,4
2017-09-17T06:39:07.189Z,4
2017-09-17T06:39:47.627Z,4
2017-09-17T06:40:28.073Z,4
2017-09-17T06:41:08.525Z,4
2017-09-17T06:41:48.972Z,4
2017-09-17T06:42:29.420Z,4
2017-09-17T06:43:09.867Z,4
2017-09-17T06:43:50.319Z,4
2017-09-17T06:44:30.763Z,4
2017-09-17T06:45:11.213Z,4
2017-09-17T06:45:51.670Z,4
2017-09-17T06:46:32.106Z,4
2017-09-17T06:47:12.583Z,4
2017-09-17T06:47:53.028Z,4
2017-09-17T06:48:33.488Z,4
2017-09-17T06:49:13.918Z,4
2017-09-17T06:49:54.376Z,4
2017-09-17T06:50:34.829Z,4
2017-09-17T06:51:15.264Z,4
2017-09-17T06:51:55.709Z,4
2017-09-17T06:52:36.158Z,4
2017-09-17T06:53:16.599Z,4
2017-09-17T06:53:57.041Z,4
2017-09-17T06:54:37.512Z,4
2017-09-17T06:55:17.955Z,4
2017-09-17T06:55:58.406Z,4
2017-09-17T06:56:38.861Z,4
2017-09-17T06:57:19.309Z,4
2017-09-17T06:57:59.761Z,4
2017-09-17T06:58:40.206Z,4
2017-09-17T06:59:20.649Z,4
2017-09-17T07:00:01.089Z,4
2017-09-17T07:00:41.546Z,4
2017-09-17T07:01:21.990Z,4
2017-09-17T07:02:02.437Z,4
2017-09-17T07:02:42.885Z,4
2017-09-17T07:03:23.326Z,4
2017-09-17T07:04:03.783Z,4
2017-09-17T07:04:44.236Z,4
2017-09-17T07:05:24.684Z,4
2017-09-17T07:06:05.128Z,4
2017-09-17T07:06:45.579Z,4
2017-09-17T07:07:26.019Z,4
2017-09-17T07:08:06.478Z,4
2017-09-17T07:08:46.915Z,4
2017-09-17T07:09:27.365Z,4
2017-09-17T07:10:07.819Z,4
2017-09-17T07:10:48.253Z,4
2017-09-17T07:11:28.704Z,4
2017-09-17T07:12:09.153Z,4
2017-09-17T07:12:49.600Z,4
2017-09-17T07:13:30.055Z,4
2017-09-17T07:14:10.502Z,4
2017-09-17T07:14:50.951Z,4
2017-09-17T07:15:31.395Z,8
2017-09-17T07:16:11.849Z,8
2017-09-17T07:16:52.294Z,8
2017-09-17T07:17:32.743Z,8
2017-09-17T07:18:13.190Z,8
2017-09-17T07:18:53.644Z,8
2017-09-17T07:19:34.093Z,4
2017-09-17T07:20:14.539Z,4
2017-09-17T07:20:54.991Z,4
2017-09-17T07:21:35.435Z,4
2017-09-17T07:22:15.886Z,4
2017-09-17T07:22:56.331Z,4
2017-09-17T07:23:36.775Z,4
2017-09-17T07:24:17.227Z,4
2017-09-17T07:24:57.664Z,4
2017-09-17T07:25:38.138Z,4
2017-09-17T07:26:18.582Z,4
2017-09-17T07:26:59.023Z,4
2017-09-17T07:27:39.484Z,4
2017-09-17T07:28:19.914Z,4
2017-09-17T07:29:00.361Z,4
2017-09-17T07:29:40.834Z,4
2017-09-17T07:30:21.249Z,4
2017-09-17T07:31:01.698Z,4
2017-09-17T07:31:42.145Z,4
2017-09-17T07:32:22.592Z,8
2017-09-17T07:33:03.037Z,8
2017-09-17T07:33:43.469Z,8
2017-09-17T07:34:23.919Z,8
2017-09-17T07:35:04.381Z,8
2017-09-17T07:35:44.832Z,4
2017-09-17T07:36:25.272Z,4
2017-09-17T07:37:05.742Z,4
2017-09-17T07:37:46.161Z,4
2017-09-17T07:38:26.614Z,8
2017-09-17T07:39:07.077Z,8
2017-09-17T07:39:47.548Z,8
2017-09-17T07:40:27.980Z,8
2017-09-17T07:41:08.420Z,4
2017-09-17T07:41:48.865Z,4
2017-09-17T07:42:29.324Z,8
2017-09-17T07:43:09.852Z,8
2017-09-17T07:43:50.216Z,8
2017-09-17T07:44:30.663Z,8
2017-09-17T07:45:11.098Z,8
2017-09-17T07:45:51.567Z,8
2017-09-17T07:46:31.984Z,8
2017-09-17T07:47:12.417Z,8
2017-09-17T07:47:52.871Z,8
2017-09-17T07:48:33.329Z,8
2017-09-17T07:49:13.785Z,8
2017-09-17T07:49:54.232Z,8
2017-09-17T07:50:34.703Z,8
2017-09-17T07:51:15.147Z,8
2017-09-17T07:51:55.620Z,8
2017-09-17T07:52:36.064Z,8
2017-09-17T07:53:16.519Z,8
2017-09-17T07:53:56.965Z,8
2017-09-17T07:54:37.420Z,8
2017-09-17T07:55:17.848Z,8
2017-09-17T07:55:58.295Z,8
2017-09-17T07:56:38.753Z,8
2017-09-17T07:57:19.208Z,8
2017-09-17T07:57:59.609Z,8
2017-09-17T07:58:40.037Z,8
2017-09-17T07:59:20.402Z,4
2017-09-17T08:00:00.845Z,8
2017-09-17T08:00:41.260Z,8
2017-09-17T08:01:21.645Z,8
2017-09-17T08:02:02.069Z,8
2017-09-17T08:02:42.494Z,8
2017-09-17T08:03:22.877Z,8
2017-09-17T08:04:03.330Z,4
2017-09-17T08:04:43.713Z,4
2017-09-17T08:05:24.162Z,4
2017-09-17T08:06:04.611Z,4
2017-09-17T08:06:45.038Z,8
2017-09-17T08:07:25.485Z,8
2017-09-17T08:08:05.934Z,8
2017-09-17T08:08:46.387Z,8
2017-09-17T08:09:26.937Z,8
2017-09-17T08:10:07.370Z,8
2017-09-17T08:10:47.818Z,8
2017-09-17T08:11:28.252Z,8
2017-09-17T08:12:08.699Z,4
2017-09-17T08:12:49.144Z,396
2017-09-17T08:13:29.570Z,396
2017-09-17T08:14:10.012Z,392
2017-09-17T08:14:50.459Z,388
2017-09-17T08:17:23.521Z,396
2017-09-17T08:18:03.964Z,404
2017-09-17T08:18:44.412Z,404
2017-09-17T08:19:24.864Z,404
2017-09-17T08:20:05.396Z,400
2017-09-17T08:20:45.846Z,400
2017-09-17T08:21:26.295Z,396
2017-09-17T08:22:06.761Z,400
2017-09-17T08:22:47.264Z,400
2017-09-17T08:23:27.564Z,404
2017-09-17T08:24:07.963Z,404
2017-09-17T08:24:48.350Z,408
2017-09-17T08:25:28.785Z,412
2017-09-17T08:26:09.330Z,420
2017-09-17T08:26:49.787Z,424
2017-09-17T08:27:30.235Z,432
2017-09-17T08:28:10.669Z,432
2017-09-17T08:28:51.109Z,428
2017-09-17T08:29:31.561Z,424
2017-09-17T08:30:12.056Z,428
2017-09-17T08:30:52.445Z,428
2017-09-17T08:31:32.853Z,432
2017-09-17T08:32:13.442Z,440
2017-09-17T08:32:53.863Z,444
2017-09-17T08:33:34.248Z,448
2017-09-17T08:34:14.660Z,452
2017-09-17T08:34:55.039Z,456
2017-09-17T08:35:35.450Z,464
2017-09-17T08:36:15.912Z,472
2017-09-17T08:36:56.375Z,480
2017-09-17T08:37:36.848Z,492
2017-09-17T08:38:17.122Z,500
2017-09-17T08:38:57.510Z,516
2017-09-17T08:41:25.325Z,580
2017-09-17T08:42:05.770Z,600
2017-09-17T08:42:46.202Z,612
2017-09-17T08:43:26.633Z,632
2017-09-17T08:44:07.078Z,648
2017-09-17T08:44:47.546Z,676
2017-09-17T08:45:27.980Z,736
2017-09-17T08:46:08.423Z,752
2017-09-17T08:46:48.867Z,748
2017-09-17T08:47:29.349Z,776
2017-09-17T08:48:09.791Z,1264
2017-09-17T08:48:50.242Z,880
2017-09-17T08:49:30.675Z,888
2017-09-17T08:50:11.095Z,904
2017-09-17T08:50:51.568Z,1020
2017-09-17T08:51:31.983Z,928
2017-09-17T08:52:12.449Z,892
2017-09-17T08:52:52.884Z,916
2017-09-17T08:53:33.340Z,1000
2017-09-17T08:54:13.786Z,1200
2017-09-17T08:54:54.215Z,1672
2017-09-17T08:55:34.655Z,1204
2017-09-17T08:56:15.106Z,1236
2017-09-17T08:56:55.538Z,1500
2017-09-17T08:57:35.988Z,1400
2017-09-17T08:58:16.438Z,1396
2017-09-17T08:58:56.880Z,1468
2017-09-17T08:59:37.332Z,1484
2017-09-17T09:00:17.780Z,1756
2017-09-17T09:00:58.230Z,3476
2017-09-17T09:01:38.674Z,3788
2017-09-17T09:02:19.129Z,1660
2017-09-17T09:02:59.565Z,1880
2017-09-17T09:03:40.015Z,2144
2017-09-17T09:04:20.448Z,2164
2017-09-17T09:05:00.898Z,1544
2017-09-17T09:05:41.348Z,2204
2017-09-17T09:06:21.797Z,1584
2017-09-17T09:07:02.224Z,1468
2017-09-17T09:07:42.685Z,1396
2017-09-17T09:08:23.122Z,1336
2017-09-17T09:09:03.558Z,1308
2017-09-17T09:09:44.001Z,1288
2017-09-17T09:10:24.471Z,1276
2017-09-17T09:11:04.890Z,1336
2017-09-17T09:11:45.336Z,1472
2017-09-17T09:12:25.791Z,2760
2017-09-17T09:13:06.240Z,1320
2017-09-17T09:13:46.692Z,1308
2017-09-17T09:14:27.149Z,1412
2017-09-17T09:15:07.582Z,1728
2017-09-17T09:15:48.023Z,1848
2017-09-17T09:16:28.465Z,1652
2017-09-17T09:17:08.919Z,1628
2017-09-17T09:17:49.380Z,1692
2017-09-17T09:18:29.831Z,3856
2017-09-17T09:19:10.263Z,3812
2017-09-17T09:19:50.713Z,2244
2017-09-17T09:20:31.202Z,3288
2017-09-17T09:21:11.635Z,3008
2017-09-17T09:21:52.094Z,2436
2017-09-17T09:22:32.537Z,2240
2017-09-17T09:23:12.984Z,2168
2017-09-17T09:23:53.431Z,2160
2017-09-17T09:24:33.870Z,2200
2017-09-17T09:25:14.316Z,2452
2017-09-17T09:25:54.769Z,2212
2017-09-17T09:26:35.208Z,2220
2017-09-17T09:27:15.668Z,2192
2017-09-17T09:27:56.106Z,2124
2017-09-17T09:28:36.562Z,2156
2017-09-17T09:29:16.995Z,2456
2017-09-17T09:29:57.567Z,2164
2017-09-17T09:30:37.914Z,2176
2017-09-17T09:31:18.332Z,2216
2017-09-17T09:31:58.768Z,2268
2017-09-17T09:32:39.226Z,2232
2017-09-17T09:33:19.663Z,2380
2017-09-17T09:34:00.111Z,2416
2017-09-17T09:34:40.563Z,2368
2017-09-17T09:35:21.008Z,2776
2017-09-17T09:36:01.613Z,5180
2017-09-17T09:36:41.881Z,2884
2017-09-17T09:37:22.323Z,2500
2017-09-17T09:38:02.772Z,2572
2017-09-17T09:38:43.217Z,2564
2017-09-17T09:39:23.668Z,2360
2017-09-17T09:40:04.119Z,2560
2017-09-17T09:40:44.559Z,2632
2017-09-17T09:41:25.010Z,2304
2017-09-17T09:42:05.458Z,2224
2017-09-17T09:42:45.888Z,2216
2017-09-17T09:43:26.334Z,2528
2017-09-17T09:44:06.781Z,5528
2017-09-17T09:44:47.346Z,3752
2017-09-17T09:45:27.772Z,2928
2017-09-17T09:46:08.226Z,3448
2017-09-17T09:46:48.665Z,5216
2017-09-17T09:47:29.110Z,3920
2017-09-17T09:48:09.572Z,6232
2017-09-17T09:48:50.018Z,3816
2017-09-17T09:49:30.463Z,5352
2017-09-17T09:50:10.910Z,6796
2017-09-17T09:50:51.346Z,7076
2017-09-17T09:51:31.788Z,3864
2017-09-17T09:52:12.235Z,3624
2017-09-17T09:52:52.684Z,6352
2017-09-17T09:53:33.137Z,4812
2017-09-17T09:54:13.612Z,3392
2017-09-17T09:54:55.046Z,5544
2017-09-17T09:55:35.475Z,2108
2017-09-17T09:56:15.903Z,1892
2017-09-17T09:56:56.338Z,1992